Time;durP1;ratioP1;P1;durP2;ratioP2;P2;SDS_P1;SDS_P2;PMS_P1;PMS_P2;Temp;Humidity;BMP_temperature;BMP_pressure;BME280_temperature;BME280_humidity;BME280_pressure;Samples;Min_cycle;Max_cycle;Signal;HPM_P1;HPM_P2
2022/03/12 00:01:10;;;;;;;9.77;7.45;;;7.80;86.40;;;;;;4888755;29;20098;-46
2022/03/12 00:03:40;;;;;;;12.27;7.40;;;7.70;86.80;;;;;;4891288;29;20076;-47
2022/03/12 00:06:09;;;;;;;11.80;7.47;;;7.80;86.40;;;;;;4887671;29;20135;-44
2022/03/12 00:08:46;;;;;;;12.63;7.32;;;7.70;86.60;;;;;;4889254;29;20163;-46
2022/03/12 00:11:19;;;;;;;10.23;7.57;;;7.80;86.20;;;;;;4883643;29;20571;-46
2022/03/12 00:13:46;;;;;;;7.88;5.57;;;7.80;86.30;;;;;;4884992;29;20064;-45
2022/03/12 00:16:18;;;;;;;10.85;7.57;;;7.70;86.90;;;;;;4890154;29;20059;-46
2022/03/12 00:18:52;;;;;;;10.80;8.02;;;7.70;86.00;;;;;;4862752;29;20112;-47
2022/03/12 00:21:21;;;;;;;10.18;7.10;;;7.70;86.00;;;;;;4885836;29;20555;-48
2022/03/12 00:23:49;;;;;;;9.27;7.32;;;7.70;86.60;;;;;;4892919;29;20058;-48
2022/03/12 00:26:17;;;;;;;12.95;8.30;;;7.60;86.90;;;;;;4892470;29;20060;-46
2022/03/12 00:28:43;;;;;;;10.65;7.57;;;7.60;86.80;;;;;;4892649;29;20057;-47
2022/03/12 00:31:10;;;;;;;10.85;7.95;;;7.60;87.00;;;;;;4892322;29;20451;-48
2022/03/12 00:33:37;;;;;;;9.43;7.28;;;7.60;87.60;;;;;;4889907;29;20172;-49
2022/03/12 00:36:04;;;;;;;9.80;7.30;;;7.50;87.50;;;;;;4892412;29;20048;-48
2022/03/12 00:38:30;;;;;;;10.23;7.20;;;7.50;86.50;;;;;;4889832;29;20159;-44
2022/03/12 00:40:56;;;;;;;10.80;7.28;;;7.50;86.90;;;;;;4889883;29;20048;-45
2022/03/12 00:43:22;;;;;;;9.95;7.43;;;7.50;87.40;;;;;;4885002;29;20076;-46
2022/03/12 00:45:50;;;;;;;10.25;7.38;;;7.50;86.80;;;;;;4887622;29;20052;-46
2022/03/12 00:48:16;;;;;;;10.27;7.63;;;7.50;88.00;;;;;;4888241;29;20044;-47
2022/03/12 00:50:42;;;;;;;10.05;7.18;;;7.40;87.50;;;;;;4883887;29;20045;-48
2022/03/12 00:53:08;;;;;;;10.10;7.70;;;7.40;87.40;;;;;;4882252;29;20585;-45
2022/03/12 00:55:34;;;;;;;11.30;6.50;;;7.40;87.30;;;;;;4885140;29;20064;-48
2022/03/12 00:58:00;;;;;;;10.05;7.35;;;7.40;87.40;;;;;;4890438;29;20163;-45
2022/03/12 01:00:26;;;;;;;8.18;7.32;;;7.40;86.90;;;;;;4886008;29;20623;-49
2022/03/12 01:02:53;;;;;;;10.40;7.32;;;7.40;87.30;;;;;;4887409;29;20278;-44
2022/03/12 01:05:34;;;;;;;12.50;7.50;;;7.30;87.70;;;;;;4888839;29;20053;-49
2022/03/12 01:08:00;;;;;;;9.45;7.38;;;7.30;87.70;;;;;;4879906;29;20044;-46
2022/03/12 01:10:26;;;;;;;7.85;7.03;;;7.30;86.70;;;;;;4886773;29;20132;-45
2022/03/12 01:12:52;;;;;;;10.50;8.30;;;7.30;86.80;;;;;;4886814;29;20136;-47
2022/03/12 01:15:17;;;;;;;9.98;7.03;;;7.30;87.20;;;;;;4885329;29;20465;-48
2022/03/12 01:17:43;;;;;;;10.70;7.50;;;7.30;87.90;;;;;;4884895;29;20080;-45
2022/03/12 01:20:10;;;;;;;11.57;7.63;;;7.20;88.00;;;;;;4885060;29;20084;-49
2022/03/12 01:22:36;;;;;;;10.40;6.53;;;7.20;86.90;;;;;;4888687;29;20040;-44
2022/03/12 01:25:06;;;;;;;11.32;8.15;;;7.20;87.10;;;;;;4887052;29;20063;-46
2022/03/12 01:27:33;;;;;;;9.18;7.22;;;7.20;87.80;;;;;;4869463;29;20445;-45
2022/03/12 01:30:00;;;;;;;10.35;7.93;;;7.20;88.10;;;;;;4887302;29;20118;-46
2022/03/12 01:32:26;;;;;;;12.30;7.18;;;7.10;88.40;;;;;;4887641;29;20150;-48
2022/03/12 01:34:54;;;;;;;11.52;7.63;;;7.10;88.20;;;;;;4887273;29;20488;-45
2022/03/12 01:37:20;;;;;;;12.57;7.18;;;7.10;88.70;;;;;;4897117;29;20056;-48
2022/03/12 01:39:49;;;;;;;9.13;7.38;;;7.10;87.80;;;;;;4889820;29;21048;-48
2022/03/12 01:42:16;;;;;;;10.70;7.80;;;7.10;87.40;;;;;;4886930;29;20056;-47
2022/03/12 01:44:44;;;;;;;12.30;8.32;;;7.00;88.10;;;;;;4889386;29;20048;-48
2022/03/12 01:47:11;;;;;;;9.20;7.68;;;7.00;89.10;;;;;;4887146;29;20059;-49
2022/03/12 01:49:37;;;;;;;11.45;8.70;;;7.00;88.40;;;;;;4884040;29;20048;-46
2022/03/12 01:52:04;;;;;;;10.20;6.95;;;6.90;88.90;;;;;;4879948;29;20373;-45
2022/03/12 01:54:30;;;;;;;10.43;7.90;;;7.00;88.80;;;;;;4883428;29;20052;-45
2022/03/12 01:56:58;;;;;;;12.45;8.00;;;7.00;88.80;;;;;;4885978;29;20048;-47
2022/03/12 01:59:24;;;;;;;11.73;8.15;;;7.00;89.20;;;;;;4887234;29;20041;-45
2022/03/12 02:01:54;;;;;;;10.68;7.50;;;6.90;89.40;;;;;;4885220;29;20048;-45
2022/03/12 02:04:22;;;;;;;11.02;7.35;;;6.90;90.00;;;;;;4883639;29;20045;-46
2022/03/12 02:06:50;;;;;;;10.45;8.30;;;6.90;89.50;;;;;;4882957;29;20056;-46
2022/03/12 02:09:17;;;;;;;10.35;7.35;;;6.90;89.30;;;;;;4884302;29;20092;-49
2022/03/12 02:11:48;;;;;;;11.35;7.55;;;6.90;89.40;;;;;;4885546;29;20507;-48
2022/03/12 02:14:16;;;;;;;13.80;7.32;;;6.90;89.70;;;;;;4877541;29;20049;-43
2022/03/12 02:16:50;;;;;;;10.80;7.93;;;6.90;88.30;;;;;;4886357;29;20517;-47
2022/03/12 02:19:17;;;;;;;12.20;8.02;;;7.00;88.50;;;;;;4884725;29;20052;-46
2022/03/12 02:21:54;;;;;;;10.48;7.50;;;7.00;89.30;;;;;;4885615;29;20044;-46
2022/03/12 02:24:22;;;;;;;12.77;8.27;;;7.00;89.20;;;;;;4883280;29;20132;-44
2022/03/12 02:26:48;;;;;;;10.15;8.13;;;7.00;89.50;;;;;;4884707;29;20051;-44
2022/03/12 02:29:22;;;;;;;13.77;7.45;;;7.00;89.30;;;;;;4884130;29;20041;-47
2022/03/12 02:31:50;;;;;;;10.75;7.55;;;7.00;89.30;;;;;;4885349;29;20052;-45
2022/03/12 02:34:22;;;;;;;12.05;7.90;;;7.00;89.40;;;;;;4881323;29;20060;-46
2022/03/12 02:36:50;;;;;;;10.88;7.43;;;6.90;90.00;;;;;;4884923;29;20148;-48
2022/03/12 02:39:17;;;;;;;21.88;9.27;;;6.90;87.80;;;;;;4868930;29;20506;-46
2022/03/12 02:41:43;;;;;;;11.88;7.55;;;7.00;88.70;;;;;;4884598;29;20060;-47
2022/03/12 02:44:20;;;;;;;10.30;8.07;;;7.00;88.10;;;;;;4884659;29;20507;-46
2022/03/12 02:47:14;;;;;;;10.55;7.97;;;7.00;88.90;;;;;;4876876;29;20583;-45
2022/03/12 02:49:45;;;;;;;11.93;7.88;;;7.00;89.90;;;;;;4862729;29;20140;-45
2022/03/12 02:52:12;;;;;;;10.57;7.65;;;7.00;89.50;;;;;;4880973;29;20540;-47
2022/03/12 02:54:37;;;;;;;10.95;7.97;;;7.10;87.80;;;;;;4883006;29;20052;-44
2022/03/12 02:57:03;;;;;;;10.63;7.90;;;7.10;89.50;;;;;;4888775;29;20064;-46
2022/03/12 02:59:30;;;;;;;8.52;7.60;;;7.10;89.20;;;;;;4884187;29;20044;-48
2022/03/12 03:01:57;;;;;;;9.07;7.63;;;7.10;89.40;;;;;;4885281;29;20385;-46
2022/03/12 03:04:24;;;;;;;10.13;7.53;;;7.20;87.80;;;;;;4866917;29;20064;-49
2022/03/12 03:06:50;;;;;;;14.68;7.75;;;7.30;87.60;;;;;;4883091;29;20061;-45
2022/03/12 03:09:16;;;;;;;11.27;7.35;;;7.30;88.30;;;;;;4884500;29;20056;-46
2022/03/12 03:11:43;;;;;;;13.13;7.68;;;7.30;87.60;;;;;;4882768;29;20045;-45
2022/03/12 03:14:12;;;;;;;10.50;8.15;;;7.40;87.70;;;;;;4883237;29;20052;-43
2022/03/12 03:16:39;;;;;;;9.68;7.88;;;7.40;89.80;;;;;;4881523;29;20491;-46
2022/03/12 03:19:05;;;;;;;12.68;8.00;;;7.40;89.90;;;;;;4866756;29;20135;-47
2022/03/12 03:21:30;;;;;;;12.13;7.95;;;7.40;89.90;;;;;;4884246;29;20090;-46
2022/03/12 03:23:56;;;;;;;12.80;8.25;;;7.40;89.90;;;;;;4885622;29;20593;-45
2022/03/12 03:26:49;;;;;;;18.95;9.07;;;7.40;90.20;;;;;;4884934;29;20159;-43
2022/03/12 03:29:15;;;;;;;10.38;7.90;;;7.40;90.70;;;;;;4883660;29;20056;-46
2022/03/12 03:31:41;;;;;;;11.25;7.65;;;7.40;90.50;;;;;;4884157;29;20123;-48
2022/03/12 03:34:07;;;;;;;11.15;8.13;;;7.40;90.10;;;;;;4885155;29;20082;-45
2022/03/12 03:36:34;;;;;;;14.95;8.95;;;7.40;89.70;;;;;;4884642;29;20109;-46
2022/03/12 03:39:00;;;;;;;12.38;8.93;;;7.30;90.00;;;;;;4885354;29;20060;-44
2022/03/12 03:41:25;;;;;;;9.85;8.18;;;7.30;90.40;;;;;;4867883;29;20041;-49
2022/03/12 03:43:52;;;;;;;10.43;8.10;;;7.40;89.00;;;;;;4884537;29;20124;-47
2022/03/12 03:46:23;;;;;;;10.45;8.35;;;7.40;89.40;;;;;;4884434;29;20504;-46
2022/03/12 03:48:50;;;;;;;9.68;8.32;;;7.40;88.70;;;;;;4886409;29;20044;-45
2022/03/12 03:51:17;;;;;;;12.15;8.82;;;7.50;89.60;;;;;;4880936;29;20203;-46
2022/03/12 03:53:46;;;;;;;14.93;8.60;;;7.50;90.20;;;;;;4884188;29;20056;-48
2022/03/12 03:56:12;;;;;;;11.63;8.50;;;7.40;91.10;;;;;;4884235;29;20057;-48
2022/03/12 03:58:38;;;;;;;12.35;9.20;;;7.40;91.90;;;;;;4867918;29;20055;-44
2022/03/12 04:01:12;;;;;;;11.55;8.73;;;7.30;93.00;;;;;;4885364;29;20052;-46
2022/03/12 04:03:47;;;;;;;12.55;8.77;;;7.30;93.70;;;;;;4883613;29;20140;-45
2022/03/12 04:06:13;;;;;;;12.95;9.13;;;7.20;94.30;;;;;;4872292;29;20053;-46
2022/03/12 04:08:42;;;;;;;12.45;9.35;;;7.10;95.30;;;;;;4885960;29;20055;-47
2022/03/12 04:11:14;;;;;;;11.13;9.43;;;7.10;95.50;;;;;;4889183;29;20520;-46
2022/03/12 04:13:40;;;;;;;13.07;10.10;;;7.00;96.60;;;;;;4873486;29;20404;-49
2022/03/12 04:16:06;;;;;;;12.05;9.80;;;7.00;96.40;;;;;;4868607;29;20056;-50
2022/03/12 04:18:34;;;;;;;13.02;10.25;;;6.90;98.80;;;;;;4884348;29;20052;-44
2022/03/12 04:21:00;;;;;;;12.90;10.15;;;6.90;99.20;;;;;;4885985;29;20149;-45
2022/03/12 04:23:27;;;;;;;12.82;10.32;;;6.80;99.80;;;;;;4891046;29;20055;-46
2022/03/12 04:25:57;;;;;;;14.95;9.95;;;6.80;99.90;;;;;;4893615;29;20052;-44
2022/03/12 04:28:26;;;;;;;17.30;10.73;;;6.70;99.90;;;;;;4888226;29;20131;-45
2022/03/12 04:30:52;;;;;;;13.07;10.60;;;6.60;99.90;;;;;;4888605;29;20052;-46
2022/03/12 04:33:21;;;;;;;16.48;10.93;;;6.60;99.90;;;;;;4887056;29;20052;-46
2022/03/12 04:35:49;;;;;;;13.73;10.23;;;6.50;99.90;;;;;;4887873;29;20399;-45
2022/03/12 04:38:15;;;;;;;15.25;10.40;;;6.50;99.90;;;;;;4895413;29;20059;-44
2022/03/12 04:40:43;;;;;;;13.43;10.55;;;6.40;99.90;;;;;;4887771;29;20171;-49
2022/03/12 04:43:11;;;;;;;14.68;10.50;;;6.40;99.90;;;;;;4888068;29;20060;-46
2022/03/12 04:45:37;;;;;;;14.15;11.13;;;6.30;99.90;;;;;;4888084;29;20571;-47
2022/03/12 04:48:04;;;;;;;12.43;10.85;;;6.30;99.90;;;;;;4886757;29;20041;-46
2022/03/12 04:50:30;;;;;;;15.98;11.95;;;6.20;99.90;;;;;;4884533;29;20495;-44
2022/03/12 04:53:01;;;;;;;13.40;11.15;;;6.20;99.90;;;;;;4886757;29;20052;-46
2022/03/12 04:55:29;;;;;;;15.75;11.50;;;6.10;99.90;;;;;;4886792;29;20075;-45
2022/03/12 04:57:56;;;;;;;13.30;10.65;;;6.10;99.90;;;;;;4888206;29;20416;-43
2022/03/12 05:00:26;;;;;;;11.55;10.30;;;6.00;99.90;;;;;;4887440;29;20044;-47
2022/03/12 05:03:07;;;;;;;14.73;11.20;;;5.90;99.90;;;;;;4885263;29;20602;-45
2022/03/12 05:05:33;;;;;;;13.73;10.27;;;5.90;99.90;;;;;;4885435;29;20063;-46
2022/03/12 05:07:59;;;;;;;16.58;11.20;;;5.90;99.90;;;;;;4886888;29;20045;-49
2022/03/12 05:10:27;;;;;;;12.95;10.45;;;5.90;99.90;;;;;;4889117;29;20053;-45
2022/03/12 05:12:57;;;;;;;12.40;10.57;;;5.90;99.90;;;;;;4886771;29;20048;-45
2022/03/12 05:15:23;;;;;;;13.63;10.20;;;5.90;99.90;;;;;;4887407;29;20048;-45
2022/03/12 05:17:49;;;;;;;15.32;10.82;;;5.90;99.90;;;;;;4888533;29;20052;-45
2022/03/12 05:20:25;;;;;;;16.42;10.82;;;5.90;99.90;;;;;;4887503;29;20056;-46
2022/03/12 05:22:51;;;;;;;13.60;10.57;;;5.90;99.90;;;;;;4887060;29;20060;-46
2022/03/12 05:25:19;;;;;;;15.50;11.25;;;5.90;99.90;;;;;;4890261;29;20108;-51
2022/03/12 05:27:52;;;;;;;12.77;10.50;;;5.90;99.90;;;;;;4889091;29;20062;-46
2022/03/12 05:30:19;;;;;;;13.10;10.75;;;5.90;99.90;;;;;;4887733;29;20496;-48
2022/03/12 05:32:46;;;;;;;15.50;11.32;;;5.90;99.90;;;;;;4885988;29;20044;-45
2022/03/12 05:35:12;;;;;;;14.35;11.38;;;5.90;99.90;;;;;;4877645;29;20049;-46
2022/03/12 05:37:38;;;;;;;12.57;11.18;;;5.90;99.90;;;;;;4896402;29;20056;-46
2022/03/12 05:40:07;;;;;;;16.30;10.35;;;5.90;99.90;;;;;;4887709;29;20052;-45
2022/03/12 05:42:34;;;;;;;15.63;11.18;;;5.90;99.90;;;;;;4886350;29;20125;-45
2022/03/12 05:45:02;;;;;;;15.20;11.13;;;5.90;99.90;;;;;;4886836;29;20583;-45
2022/03/12 05:47:28;;;;;;;12.85;11.07;;;5.90;99.90;;;;;;4886260;29;20079;-45
2022/03/12 05:49:53;;;;;;;13.60;10.95;;;5.90;99.90;;;;;;4886976;29;20055;-46
2022/03/12 05:52:20;;;;;;;14.50;11.20;;;5.90;99.90;;;;;;4881621;29;20056;-45
2022/03/12 05:54:48;;;;;;;12.32;10.60;;;5.90;99.90;;;;;;4886742;29;20071;-46
2022/03/12 05:57:14;;;;;;;13.00;10.63;;;5.90;99.90;;;;;;4886807;29;20535;-46
2022/03/12 05:59:40;;;;;;;14.20;10.52;;;5.90;99.90;;;;;;4887034;29;20056;-46
2022/03/12 06:02:06;;;;;;;13.88;10.95;;;5.90;99.90;;;;;;4885844;29;20130;-47
2022/03/12 06:04:33;;;;;;;13.45;10.38;;;5.90;99.90;;;;;;4886018;29;20072;-46
2022/03/12 06:07:00;;;;;;;16.02;10.77;;;5.90;99.90;;;;;;4885872;29;20412;-45
2022/03/12 06:09:25;;;;;;;14.80;11.15;;;5.90;99.90;;;;;;4886962;29;20124;-45
2022/03/12 06:11:52;;;;;;;12.52;10.63;;;5.80;99.90;;;;;;4886319;29;20571;-43
2022/03/12 06:14:19;;;;;;;17.67;10.90;;;5.80;99.90;;;;;;4868441;29;20067;-46
2022/03/12 06:16:48;;;;;;;12.95;10.43;;;5.70;99.90;;;;;;4886003;29;20052;-46
2022/03/12 06:19:21;;;;;;;18.20;11.18;;;5.70;99.90;;;;;;4886505;29;20211;-47
2022/03/12 06:21:48;;;;;;;;;;;5.70;99.90;;;;;;4887066;29;20586;-45
2022/03/12 06:24:14;;;;;;;17.27;10.90;;;5.60;99.90;;;;;;4885399;29;19970;-45
2022/03/12 06:26:43;;;;;;;13.38;10.82;;;5.60;99.90;;;;;;4886270;29;20053;-44
2022/03/12 06:29:14;;;;;;;16.65;10.98;;;5.50;99.90;;;;;;4886668;29;20080;-48
2022/03/12 06:31:43;;;;;;;13.35;10.88;;;5.50;99.90;;;;;;4886520;29;20056;-48
2022/03/12 06:34:11;;;;;;;13.75;11.30;;;5.40;99.90;;;;;;4869589;29;20109;-50
2022/03/12 06:36:38;;;;;;;17.15;10.60;;;5.40;99.90;;;;;;4873364;29;20379;-47
2022/03/12 06:39:07;;;;;;;15.45;11.65;;;5.40;99.90;;;;;;4886686;29;20056;-46
2022/03/12 06:41:45;;;;;;;16.38;12.30;;;5.40;99.90;;;;;;4888389;29;20504;-46
2022/03/12 06:44:15;;;;;;;16.05;12.10;;;5.40;99.90;;;;;;4869641;29;20056;-42
2022/03/12 06:46:41;;;;;;;15.65;12.00;;;5.40;99.90;;;;;;4884551;29;20057;-46
2022/03/12 06:49:07;;;;;;;16.75;11.85;;;5.40;99.90;;;;;;4869085;29;20194;-44
2022/03/12 06:51:34;;;;;;;14.20;11.77;;;5.40;99.90;;;;;;4876815;29;20411;-46
2022/03/12 06:54:00;;;;;;;13.23;11.20;;;5.40;99.90;;;;;;4885374;29;20583;-45
2022/03/12 06:56:27;;;;;;;15.20;11.07;;;5.50;99.90;;;;;;4884178;29;20500;-44
2022/03/12 06:58:52;;;;;;;17.80;11.75;;;5.70;99.90;;;;;;4885743;29;20420;-45
2022/03/12 07:01:18;;;;;;;14.02;12.30;;;6.00;99.90;;;;;;4888011;29;20059;-45
2022/03/12 07:03:44;;;;;;;16.60;12.05;;;6.30;99.90;;;;;;4887354;29;20056;-45
2022/03/12 07:06:10;;;;;;;14.57;12.25;;;6.70;99.90;;;;;;4885607;29;20049;-45
2022/03/12 07:08:36;;;;;;;15.15;11.63;;;7.20;99.90;;;;;;4885130;29;20048;-46
2022/03/12 07:11:03;;;;;;;20.38;12.82;;;7.60;99.90;;;;;;4885772;29;20044;-45
2022/03/12 07:13:30;;;;;;;14.45;12.23;;;7.70;99.90;;;;;;4885244;29;20052;-44
2022/03/12 07:15:56;;;;;;;15.02;12.38;;;7.90;99.90;;;;;;4885560;29;20049;-44
2022/03/12 07:18:25;;;;;;;13.35;11.85;;;8.00;99.90;;;;;;4885462;29;20056;-45
2022/03/12 07:20:50;;;;;;;14.25;11.32;;;8.00;99.90;;;;;;4886656;29;20048;-44
2022/03/12 07:23:16;;;;;;;15.85;13.57;;;8.10;99.90;;;;;;4878856;29;20582;-44
2022/03/12 07:25:42;;;;;;;15.75;11.98;;;8.30;99.90;;;;;;4884701;29;20112;-45
2022/03/12 07:28:10;;;;;;;14.95;12.18;;;8.40;99.90;;;;;;4877282;29;20088;-45
2022/03/12 07:30:41;;;;;;;15.25;12.48;;;8.50;99.90;;;;;;4877938;29;20063;-45
2022/03/12 07:33:06;;;;;;;14.57;12.60;;;8.60;99.90;;;;;;4883726;29;20134;-46
2022/03/12 07:35:32;;;;;;;15.20;10.60;;;8.70;99.90;;;;;;4866436;29;20044;-45
2022/03/12 07:37:58;;;;;;;12.98;11.40;;;8.60;99.90;;;;;;4885656;29;20053;-50
2022/03/12 07:40:24;;;;;;;13.48;11.27;;;8.70;99.90;;;;;;4885466;29;21550;-46
2022/03/12 07:42:50;;;;;;;14.73;12.00;;;8.70;99.90;;;;;;4889381;29;20059;-47
2022/03/12 07:45:16;;;;;;;15.18;12.80;;;8.80;99.90;;;;;;4885810;29;20087;-47
2022/03/12 07:47:42;;;;;;;15.80;11.52;;;9.00;99.90;;;;;;4885791;29;20052;-49
2022/03/12 07:50:09;;;;;;;15.15;12.27;;;9.10;99.90;;;;;;4888898;29;20060;-46
2022/03/12 07:52:35;;;;;;;13.82;11.20;;;9.30;99.90;;;;;;4874668;29;20810;-49
2022/03/12 07:55:02;;;;;;;18.13;12.15;;;9.40;99.90;;;;;;4885389;29;20148;-48
2022/03/12 07:57:29;;;;;;;15.27;11.55;;;9.50;99.90;;;;;;4882943;29;20052;-50
2022/03/12 07:59:59;;;;;;;14.38;11.23;;;9.50;99.90;;;;;;4872341;29;20166;-45
2022/03/12 08:02:25;;;;;;;14.52;12.45;;;9.60;99.90;;;;;;4889046;29;20052;-45
2022/03/12 08:04:51;;;;;;;12.60;11.20;;;9.60;99.90;;;;;;4890054;29;20056;-47
2022/03/12 08:07:17;;;;;;;16.38;11.82;;;9.60;99.90;;;;;;4871931;29;20425;-47
2022/03/12 08:09:43;;;;;;;14.05;10.85;;;9.70;99.90;;;;;;4887993;29;20416;-45
2022/03/12 08:12:09;;;;;;;14.93;10.93;;;9.90;99.90;;;;;;4887059;29;20048;-45
2022/03/12 08:14:35;;;;;;;14.80;11.02;;;10.00;99.90;;;;;;4889195;29;20049;-45
2022/03/12 08:17:00;;;;;;;13.82;11.32;;;10.20;99.90;;;;;;4887976;29;20132;-45
2022/03/12 08:19:26;;;;;;;14.45;11.45;;;10.20;99.90;;;;;;4887711;29;20060;-45
2022/03/12 08:21:52;;;;;;;16.00;12.48;;;10.30;99.90;;;;;;4889047;29;20099;-44
2022/03/12 08:24:19;;;;;;;16.05;12.55;;;10.30;99.90;;;;;;4888505;29;20059;-46
2022/03/12 08:26:47;;;;;;;17.70;11.88;;;10.20;99.90;;;;;;4887521;29;20599;-46
2022/03/12 08:29:14;;;;;;;14.80;12.25;;;10.30;99.90;;;;;;4887983;29;20598;-44
2022/03/12 08:31:41;;;;;;;15.57;12.35;;;10.30;99.90;;;;;;4887969;29;20575;-42
2022/03/12 08:34:10;;;;;;;13.02;11.63;;;10.30;99.90;;;;;;4888402;29;20135;-44
2022/03/12 08:36:36;;;;;;;15.77;12.00;;;10.30;99.90;;;;;;4888763;29;20111;-45
2022/03/12 08:39:03;;;;;;;15.43;12.38;;;10.40;99.90;;;;;;4887939;29;20052;-43
2022/03/12 08:41:29;;;;;;;12.77;11.25;;;10.50;99.90;;;;;;4891613;29;20048;-43
2022/03/12 08:43:55;;;;;;;14.25;11.27;;;10.70;99.90;;;;;;4890488;29;20055;-44
2022/03/12 08:46:20;;;;;;;13.52;11.20;;;10.70;99.90;;;;;;4888253;29;20056;-46
2022/03/12 08:48:46;;;;;;;12.90;11.50;;;10.80;99.90;;;;;;4888072;29;20085;-45
2022/03/12 08:51:12;;;;;;;14.07;12.55;;;10.80;99.90;;;;;;4871691;29;20071;-45
2022/03/12 08:53:38;;;;;;;13.75;11.30;;;10.80;99.90;;;;;;4888205;29;20055;-44
2022/03/12 08:56:08;;;;;;;14.25;12.85;;;10.90;99.90;;;;;;4887957;29;20052;-46
2022/03/12 08:58:33;;;;;;;13.38;11.75;;;10.90;99.90;;;;;;4888222;29;20056;-45
2022/03/12 09:01:01;;;;;;;15.77;12.27;;;11.00;99.90;;;;;;4888596;29;20811;-44
2022/03/12 09:03:27;;;;;;;12.98;11.43;;;11.00;99.90;;;;;;4888211;29;20072;-46
2022/03/12 09:05:54;;;;;;;13.82;12.40;;;11.00;99.90;;;;;;4892225;29;20412;-45
2022/03/12 09:08:20;;;;;;;14.05;12.38;;;11.00;99.90;;;;;;4887079;29;20061;-47
2022/03/12 09:10:46;;;;;;;14.23;11.55;;;11.00;99.90;;;;;;4887819;29;20067;-47
2022/03/12 09:13:14;;;;;;;15.18;11.98;;;11.00;99.90;;;;;;4886720;29;20053;-46
2022/03/12 09:15:41;;;;;;;14.57;11.57;;;11.10;99.90;;;;;;4887382;29;20072;-44
2022/03/12 09:18:13;;;;;;;14.88;11.80;;;11.20;99.90;;;;;;4887680;29;20162;-44
2022/03/12 09:20:46;;;;;;;14.52;12.40;;;11.20;99.90;;;;;;4887397;29;20522;-44
2022/03/12 09:23:22;;;;;;;15.45;12.05;;;11.20;99.90;;;;;;4886233;29;20056;-46
2022/03/12 09:25:49;;;;;;;15.60;12.45;;;11.20;99.90;;;;;;4886562;29;20055;-46
2022/03/12 09:28:15;;;;;;;12.82;11.48;;;11.30;99.90;;;;;;4887035;29;20525;-43
2022/03/12 09:30:41;;;;;;;13.48;11.30;;;11.30;99.90;;;;;;4886765;29;20124;-44
2022/03/12 09:33:08;;;;;;;15.48;11.55;;;11.30;99.90;;;;;;4886937;29;20048;-44
2022/03/12 09:35:34;;;;;;;16.17;11.65;;;11.30;99.90;;;;;;4887297;29;20144;-44
2022/03/12 09:38:06;;;;;;;12.75;11.43;;;11.40;99.90;;;;;;4871032;29;20181;-46
2022/03/12 09:40:32;;;;;;;13.98;11.73;;;11.40;99.90;;;;;;4887408;29;20053;-46
2022/03/12 09:42:58;;;;;;;15.27;11.27;;;11.60;99.90;;;;;;4890639;29;20074;-45
2022/03/12 09:45:24;;;;;;;13.63;11.55;;;11.50;99.90;;;;;;4880697;29;20441;-44
2022/03/12 09:47:51;;;;;;;13.75;12.30;;;11.60;99.90;;;;;;4885097;29;20059;-44
2022/03/12 09:50:17;;;;;;;12.52;11.20;;;11.60;99.90;;;;;;4869552;29;20067;-44
2022/03/12 09:52:44;;;;;;;16.38;11.68;;;11.70;99.90;;;;;;4882868;29;20618;-45
2022/03/12 09:55:10;;;;;;;12.75;11.00;;;11.80;99.90;;;;;;4885996;29;20608;-44
2022/03/12 09:57:36;;;;;;;14.40;11.23;;;11.80;99.90;;;;;;4886972;29;20064;-44
2022/03/12 10:00:06;;;;;;;13.10;11.07;;;11.90;99.90;;;;;;4886771;29;20057;-45
2022/03/12 10:02:32;;;;;;;11.95;10.43;;;12.00;99.90;;;;;;4884857;29;20060;-45
2022/03/12 10:04:58;;;;;;;12.93;11.10;;;12.10;99.90;;;;;;4886755;29;20555;-44
2022/03/12 10:07:24;;;;;;;15.63;11.68;;;12.10;99.90;;;;;;4886642;29;20048;-44
2022/03/12 10:10:00;;;;;;;12.48;11.18;;;12.10;99.90;;;;;;4888508;29;20057;-45
2022/03/12 10:12:25;;;;;;;14.85;11.10;;;12.20;99.90;;;;;;4887013;29;20463;-45
2022/03/12 10:14:51;;;;;;;15.38;10.90;;;12.20;99.90;;;;;;4887713;29;20059;-47
2022/03/12 10:17:20;;;;;;;12.20;10.90;;;12.30;99.90;;;;;;4887844;29;20072;-45
2022/03/12 10:19:46;;;;;;;12.63;11.25;;;12.30;99.90;;;;;;4892293;29;20282;-43
2022/03/12 10:22:12;;;;;;;13.25;10.85;;;12.30;99.90;;;;;;4887943;29;20056;-48
2022/03/12 10:24:38;;;;;;;13.35;10.35;;;12.40;99.90;;;;;;4887355;29;20051;-48
2022/03/12 10:27:06;;;;;;;14.20;12.25;;;12.40;99.90;;;;;;4868763;29;20052;-49
2022/03/12 10:29:35;;;;;;;11.75;10.55;;;12.50;99.90;;;;;;4887011;29;20052;-46
2022/03/12 10:32:23;;;;;;;16.38;11.88;;;12.70;99.90;;;;;;4886304;29;20689;-46
2022/03/12 10:34:52;;;;;;;12.10;10.23;;;12.70;99.90;;;;;;4880859;29;20053;-45
2022/03/12 10:37:21;;;;;;;12.38;10.68;;;12.70;99.90;;;;;;4887169;29;20522;-45
2022/03/12 10:39:48;;;;;;;15.07;11.07;;;12.70;99.90;;;;;;4886274;29;20072;-48
2022/03/12 10:42:14;;;;;;;11.43;9.15;;;12.80;99.90;;;;;;4890934;29;20049;-45
2022/03/12 10:44:41;;;;;;;12.15;9.38;;;12.80;99.90;;;;;;4885452;29;20484;-44
2022/03/12 10:47:24;;;;;;;14.98;9.93;;;12.80;99.90;;;;;;4887043;29;20597;-45
2022/03/12 10:50:06;;;;;;;11.85;9.63;;;12.90;99.90;;;;;;4885584;29;20052;-44
2022/03/12 10:52:32;;;;;;;14.43;10.50;;;12.90;99.90;;;;;;4879700;29;20040;-44
2022/03/12 10:55:00;;;;;;;12.27;10.30;;;13.00;99.90;;;;;;4891993;29;20107;-45
2022/03/12 10:57:27;;;;;;;12.82;9.65;;;13.00;99.90;;;;;;4886181;29;20193;-48
2022/03/12 10:59:54;;;;;;;11.65;9.70;;;12.90;99.90;;;;;;4886142;29;20060;-45
2022/03/12 11:02:20;;;;;;;13.07;10.00;;;13.00;99.90;;;;;;4867506;29;20056;-46
2022/03/12 11:04:46;;;;;;;15.20;9.95;;;13.10;99.90;;;;;;4885501;29;20127;-44
2022/03/12 11:07:27;;;;;;;11.10;9.73;;;13.20;99.90;;;;;;4877011;29;20138;-45
2022/03/12 11:09:58;;;;;;;10.35;7.20;;;13.20;99.90;;;;;;4881345;29;20045;-44
2022/03/12 11:12:29;;;;;;;7.82;5.45;;;13.40;99.90;;;;;;4883272;29;20056;-45
2022/03/12 11:15:15;;;;;;;11.18;6.20;;;13.40;99.90;;;;;;4879213;29;20473;-45
2022/03/12 11:17:49;;;;;;;9.15;5.78;;;13.40;99.90;;;;;;4879481;29;20048;-44
2022/03/12 11:20:28;;;;;;;8.82;5.43;;;13.50;99.90;;;;;;4881602;29;20048;-47
2022/03/12 11:23:16;;;;;;;8.25;5.10;;;13.60;99.90;;;;;;4884196;29;20060;-45
2022/03/12 11:26:06;;;;;;;6.75;5.18;;;13.60;99.90;;;;;;4885887;29;20197;-44
2022/03/12 11:28:35;;;;;;;10.00;6.05;;;13.60;99.90;;;;;;4882011;29;20060;-44
2022/03/12 11:31:07;;;;;;;7.20;5.53;;;13.60;99.90;;;;;;4883849;29;20044;-46
2022/03/12 11:33:35;;;;;;;9.13;5.10;;;13.60;99.90;;;;;;4886510;29;20045;-48
2022/03/12 11:36:09;;;;;;;6.80;5.20;;;13.70;99.90;;;;;;4868546;29;20123;-47
2022/03/12 11:38:36;;;;;;;9.18;5.97;;;13.70;99.90;;;;;;4882081;29;20056;-46
2022/03/12 11:41:23;;;;;;;8.18;5.40;;;13.80;99.90;;;;;;4883597;29;20052;-45
2022/03/12 11:43:49;;;;;;;7.03;5.22;;;13.80;99.90;;;;;;4880805;29;20116;-47
2022/03/12 11:46:16;;;;;;;9.35;5.70;;;13.80;99.90;;;;;;4864887;29;20052;-45
2022/03/12 11:48:41;;;;;;;8.27;5.55;;;13.80;99.90;;;;;;4884043;29;20052;-47
2022/03/12 11:51:21;;;;;;;7.35;5.40;;;13.80;99.90;;;;;;4882106;29;20052;-46
2022/03/12 11:53:47;;;;;;;6.30;5.38;;;13.70;99.90;;;;;;4884339;29;20397;-47
2022/03/12 11:56:16;;;;;;;7.78;5.25;;;13.70;99.90;;;;;;4883159;29;20052;-46
2022/03/12 11:58:44;;;;;;;11.02;8.07;;;13.70;99.90;;;;;;4883743;29;20060;-49
2022/03/12 12:01:11;;;;;;;10.70;8.85;;;13.70;99.90;;;;;;4884418;29;20049;-45
2022/03/12 12:03:40;;;;;;;10.30;8.93;;;13.70;99.90;;;;;;4879033;29;20056;-45
2022/03/12 12:06:06;;;;;;;11.82;9.23;;;13.60;99.90;;;;;;4882163;29;20048;-45
2022/03/12 12:08:32;;;;;;;10.02;8.93;;;13.60;99.90;;;;;;4883886;29;20116;-45
2022/03/12 12:11:01;;;;;;;11.55;9.18;;;13.70;99.90;;;;;;4882629;29;20048;-44
2022/03/12 12:13:29;;;;;;;9.52;8.63;;;13.70;99.90;;;;;;4883799;29;20460;-46
2022/03/12 12:15:56;;;;;;;10.30;9.18;;;13.80;99.90;;;;;;4884055;29;20558;-43
2022/03/12 12:18:22;;;;;;;14.32;9.00;;;13.80;99.90;;;;;;4883693;29;20479;-45
2022/03/12 12:20:48;;;;;;;11.48;9.80;;;13.90;99.90;;;;;;4866641;29;20061;-46
2022/03/12 12:23:18;;;;;;;11.65;8.48;;;13.90;99.90;;;;;;4880483;29;20196;-45
2022/03/12 12:25:44;;;;;;;11.15;9.40;;;13.80;99.90;;;;;;4882215;29;20176;-44
2022/03/12 12:28:19;;;;;;;12.05;9.68;;;13.90;99.90;;;;;;4883689;29;20066;-46
2022/03/12 12:30:50;;;;;;;11.10;10.02;;;14.00;99.90;;;;;;4883426;29;20044;-46
2022/03/12 12:33:24;;;;;;;14.20;10.13;;;14.10;99.90;;;;;;4878780;29;20063;-47
2022/03/12 12:36:08;;;;;;;10.52;9.45;;;14.30;99.90;;;;;;4879485;29;20052;-47
2022/03/12 12:38:35;;;;;;;11.55;9.40;;;14.40;99.90;;;;;;4865693;29;20060;-47
2022/03/12 12:41:03;;;;;;;18.73;10.35;;;14.20;99.90;;;;;;4882873;29;20163;-45
2022/03/12 12:43:41;;;;;;;12.65;10.10;;;14.10;99.90;;;;;;4870910;29;20044;-46
2022/03/12 12:46:17;;;;;;;13.20;9.77;;;14.20;99.90;;;;;;4871438;29;20362;-45